sensor_id;sensor_type;location;lat;lon;timestamp;P1;durP1;ratioP1;P2;durP2;ratioP2
3175;SDS011;1599;51.564;6.990;2023-01-29T00:01:25;77.23;;;37.10;;
3175;SDS011;1599;51.564;6.990;2023-01-29T00:03:51;90.67;;;41.07;;
3175;SDS011;1599;51.564;6.990;2023-01-29T00:06:17;83.47;;;41.43;;
3175;SDS011;1599;51.564;6.990;2023-01-29T00:08:42;83.70;;;39.03;;
3175;SDS011;1599;51.564;6.990;2023-01-29T00:11:08;79.37;;;37.20;;
3175;SDS011;1599;51.564;6.990;2023-01-29T00:13:34;86.57;;;38.50;;
3175;SDS011;1599;51.564;6.990;2023-01-29T00:16:00;79.10;;;38.43;;
3175;SDS011;1599;51.564;6.990;2023-01-29T00:18:27;90.03;;;39.50;;
3175;SDS011;1599;51.564;6.990;2023-01-29T00:20:53;85.53;;;39.07;;
3175;SDS011;1599;51.564;6.990;2023-01-29T00:23:19;79.77;;;36.73;;
3175;SDS011;1599;51.564;6.990;2023-01-29T00:25:44;85.27;;;39.07;;
3175;SDS011;1599;51.564;6.990;2023-01-29T00:28:10;76.50;;;34.83;;
3175;SDS011;1599;51.564;6.990;2023-01-29T00:30:36;79.53;;;36.47;;
3175;SDS011;1599;51.564;6.990;2023-01-29T00:33:02;77.33;;;35.63;;
3175;SDS011;1599;51.564;6.990;2023-01-29T00:35:28;73.73;;;35.97;;
3175;SDS011;1599;51.564;6.990;2023-01-29T00:37:54;73.80;;;35.67;;
3175;SDS011;1599;51.564;6.990;2023-01-29T00:40:20;84.80;;;37.70;;
3175;SDS011;1599;51.564;6.990;2023-01-29T00:42:47;74.97;;;33.30;;
3175;SDS011;1599;51.564;6.990;2023-01-29T00:45:31;71.83;;;35.30;;
3175;SDS011;1599;51.564;6.990;2023-01-29T00:47:57;71.03;;;33.07;;
3175;SDS011;1599;51.564;6.990;2023-01-29T00:50:23;75.53;;;34.43;;
3175;SDS011;1599;51.564;6.990;2023-01-29T00:52:49;76.47;;;34.80;;
3175;SDS011;1599;51.564;6.990;2023-01-29T00:55:15;84.37;;;34.47;;
3175;SDS011;1599;51.564;6.990;2023-01-29T00:57:41;79.17;;;33.27;;
3175;SDS011;1599;51.564;6.990;2023-01-29T01:00:08;71.53;;;32.87;;
3175;SDS011;1599;51.564;6.990;2023-01-29T01:02:36;89.33;;;35.17;;
3175;SDS011;1599;51.564;6.990;2023-01-29T01:05:20;78.70;;;33.67;;
3175;SDS011;1599;51.564;6.990;2023-01-29T01:07:47;73.93;;;35.13;;
3175;SDS011;1599;51.564;6.990;2023-01-29T01:10:15;76.30;;;34.87;;
3175;SDS011;1599;51.564;6.990;2023-01-29T01:12:55;68.13;;;33.07;;
3175;SDS011;1599;51.564;6.990;2023-01-29T01:15:27;80.73;;;35.87;;
3175;SDS011;1599;51.564;6.990;2023-01-29T01:17:55;78.33;;;34.00;;
3175;SDS011;1599;51.564;6.990;2023-01-29T01:20:23;77.93;;;35.07;;
3175;SDS011;1599;51.564;6.990;2023-01-29T01:22:49;71.37;;;33.70;;
3175;SDS011;1599;51.564;6.990;2023-01-29T01:25:15;73.50;;;33.40;;
3175;SDS011;1599;51.564;6.990;2023-01-29T01:27:42;77.60;;;34.93;;
3175;SDS011;1599;51.564;6.990;2023-01-29T01:30:12;73.93;;;32.93;;
3175;SDS011;1599;51.564;6.990;2023-01-29T01:32:39;79.77;;;34.30;;
3175;SDS011;1599;51.564;6.990;2023-01-29T01:35:05;79.93;;;34.50;;
3175;SDS011;1599;51.564;6.990;2023-01-29T01:37:31;86.10;;;35.10;;
3175;SDS011;1599;51.564;6.990;2023-01-29T01:39:57;72.43;;;33.53;;
3175;SDS011;1599;51.564;6.990;2023-01-29T01:42:29;67.13;;;33.03;;
3175;SDS011;1599;51.564;6.990;2023-01-29T01:50:11;70.63;;;31.43;;
3175;SDS011;1599;51.564;6.990;2023-01-29T01:52:42;67.57;;;30.23;;
3175;SDS011;1599;51.564;6.990;2023-01-29T01:55:11;82.30;;;32.20;;
3175;SDS011;1599;51.564;6.990;2023-01-29T01:57:37;71.30;;;31.77;;
3175;SDS011;1599;51.564;6.990;2023-01-29T02:00:05;76.40;;;31.87;;
3175;SDS011;1599;51.564;6.990;2023-01-29T02:02:40;70.57;;;32.97;;
3175;SDS011;1599;51.564;6.990;2023-01-29T02:05:26;76.27;;;31.70;;
3175;SDS011;1599;51.564;6.990;2023-01-29T02:08:10;83.17;;;32.37;;
3175;SDS011;1599;51.564;6.990;2023-01-29T02:10:55;80.60;;;31.10;;
3175;SDS011;1599;51.564;6.990;2023-01-29T02:13:21;80.97;;;33.90;;
3175;SDS011;1599;51.564;6.990;2023-01-29T02:15:47;75.00;;;31.53;;
3175;SDS011;1599;51.564;6.990;2023-01-29T02:18:13;70.10;;;32.03;;
3175;SDS011;1599;51.564;6.990;2023-01-29T02:20:43;75.27;;;31.50;;
3175;SDS011;1599;51.564;6.990;2023-01-29T02:26:33;66.50;;;29.67;;
3175;SDS011;1599;51.564;6.990;2023-01-29T02:31:57;70.47;;;27.70;;
3175;SDS011;1599;51.564;6.990;2023-01-29T02:34:27;69.20;;;30.70;;
3175;SDS011;1599;51.564;6.990;2023-01-29T02:37:49;66.07;;;28.80;;
3175;SDS011;1599;51.564;6.990;2023-01-29T02:40:27;84.30;;;31.47;;
3175;SDS011;1599;51.564;6.990;2023-01-29T02:45:31;65.47;;;29.03;;
3175;SDS011;1599;51.564;6.990;2023-01-29T02:48:00;77.33;;;29.30;;
3175;SDS011;1599;51.564;6.990;2023-01-29T02:50:36;67.77;;;31.17;;
3175;SDS011;1599;51.564;6.990;2023-01-29T02:53:19;82.20;;;29.67;;
3175;SDS011;1599;51.564;6.990;2023-01-29T02:56:01;71.83;;;27.80;;
3175;SDS011;1599;51.564;6.990;2023-01-29T03:01:17;76.43;;;27.80;;
3175;SDS011;1599;51.564;6.990;2023-01-29T03:03:52;69.67;;;28.57;;
3175;SDS011;1599;51.564;6.990;2023-01-29T03:11:28;66.93;;;27.03;;
3175;SDS011;1599;51.564;6.990;2023-01-29T03:13:59;62.20;;;25.37;;
3175;SDS011;1599;51.564;6.990;2023-01-29T03:21:32;78.83;;;31.03;;
3175;SDS011;1599;51.564;6.990;2023-01-29T03:24:21;60.40;;;25.57;;
3175;SDS011;1599;51.564;6.990;2023-01-29T03:27:38;63.90;;;27.70;;
3175;SDS011;1599;51.564;6.990;2023-01-29T03:30:26;75.77;;;26.93;;
3175;SDS011;1599;51.564;6.990;2023-01-29T03:33:11;73.17;;;30.23;;
3175;SDS011;1599;51.564;6.990;2023-01-29T03:35:40;61.87;;;26.30;;
3175;SDS011;1599;51.564;6.990;2023-01-29T03:38:12;68.63;;;31.03;;
3175;SDS011;1599;51.564;6.990;2023-01-29T03:43:13;72.87;;;27.43;;
3175;SDS011;1599;51.564;6.990;2023-01-29T03:46:04;69.53;;;30.47;;
3175;SDS011;1599;51.564;6.990;2023-01-29T03:48:48;68.83;;;29.67;;
3175;SDS011;1599;51.564;6.990;2023-01-29T03:51:24;68.00;;;28.77;;
3175;SDS011;1599;51.564;6.990;2023-01-29T03:54:15;82.90;;;33.70;;
3175;SDS011;1599;51.564;6.990;2023-01-29T04:00:21;83.90;;;30.80;;
3175;SDS011;1599;51.564;6.990;2023-01-29T04:05:26;77.60;;;31.43;;
3175;SDS011;1599;51.564;6.990;2023-01-29T04:07:58;86.20;;;32.67;;
3175;SDS011;1599;51.564;6.990;2023-01-29T04:10:29;76.47;;;32.40;;
3175;SDS011;1599;51.564;6.990;2023-01-29T04:12:57;87.93;;;31.70;;
3175;SDS011;1599;51.564;6.990;2023-01-29T04:15:26;89.47;;;31.77;;
3175;SDS011;1599;51.564;6.990;2023-01-29T04:17:54;89.23;;;36.83;;
3175;SDS011;1599;51.564;6.990;2023-01-29T04:20:20;79.87;;;32.33;;
3175;SDS011;1599;51.564;6.990;2023-01-29T04:22:48;82.47;;;32.70;;
3175;SDS011;1599;51.564;6.990;2023-01-29T04:25:15;77.47;;;30.87;;
3175;SDS011;1599;51.564;6.990;2023-01-29T04:30:22;76.17;;;28.63;;
3175;SDS011;1599;51.564;6.990;2023-01-29T04:35:30;84.53;;;31.90;;
3175;SDS011;1599;51.564;6.990;2023-01-29T04:40:49;85.63;;;31.80;;
3175;SDS011;1599;51.564;6.990;2023-01-29T04:51:23;77.00;;;30.07;;
3175;SDS011;1599;51.564;6.990;2023-01-29T04:54:06;80.80;;;32.77;;
3175;SDS011;1599;51.564;6.990;2023-01-29T04:56:56;78.13;;;29.53;;
3175;SDS011;1599;51.564;6.990;2023-01-29T04:59:47;80.73;;;32.50;;
3175;SDS011;1599;51.564;6.990;2023-01-29T05:02:14;82.20;;;30.47;;
3175;SDS011;1599;51.564;6.990;2023-01-29T05:04:43;78.70;;;31.90;;
3175;SDS011;1599;51.564;6.990;2023-01-29T05:07:12;71.07;;;32.10;;
3175;SDS011;1599;51.564;6.990;2023-01-29T05:09:38;67.70;;;28.90;;
3175;SDS011;1599;51.564;6.990;2023-01-29T05:12:07;89.90;;;32.60;;
3175;SDS011;1599;51.564;6.990;2023-01-29T05:14:34;72.47;;;29.43;;
3175;SDS011;1599;51.564;6.990;2023-01-29T05:17:02;68.30;;;31.20;;
3175;SDS011;1599;51.564;6.990;2023-01-29T05:19:31;74.80;;;30.00;;
3175;SDS011;1599;51.564;6.990;2023-01-29T05:21:57;86.60;;;33.53;;
3175;SDS011;1599;51.564;6.990;2023-01-29T05:24:23;82.07;;;30.27;;
3175;SDS011;1599;51.564;6.990;2023-01-29T05:26:52;71.93;;;31.17;;
3175;SDS011;1599;51.564;6.990;2023-01-29T05:29:36;65.93;;;29.50;;
3175;SDS011;1599;51.564;6.990;2023-01-29T05:32:04;73.50;;;30.93;;
3175;SDS011;1599;51.564;6.990;2023-01-29T05:34:30;77.40;;;31.70;;
3175;SDS011;1599;51.564;6.990;2023-01-29T05:36:55;83.53;;;32.60;;
3175;SDS011;1599;51.564;6.990;2023-01-29T05:39:21;81.90;;;34.47;;
3175;SDS011;1599;51.564;6.990;2023-01-29T05:41:46;72.67;;;30.73;;
3175;SDS011;1599;51.564;6.990;2023-01-29T05:44:12;76.97;;;32.20;;
3175;SDS011;1599;51.564;6.990;2023-01-29T05:46:37;75.43;;;30.97;;
3175;SDS011;1599;51.564;6.990;2023-01-29T05:49:03;73.00;;;31.10;;
3175;SDS011;1599;51.564;6.990;2023-01-29T05:51:29;73.40;;;32.53;;
3175;SDS011;1599;51.564;6.990;2023-01-29T05:53:55;76.57;;;33.30;;
3175;SDS011;1599;51.564;6.990;2023-01-29T05:56:20;75.60;;;31.03;;
3175;SDS011;1599;51.564;6.990;2023-01-29T05:58:46;81.87;;;33.27;;
3175;SDS011;1599;51.564;6.990;2023-01-29T06:01:12;69.57;;;31.33;;
3175;SDS011;1599;51.564;6.990;2023-01-29T06:03:40;71.63;;;31.27;;
3175;SDS011;1599;51.564;6.990;2023-01-29T06:06:06;79.20;;;33.00;;
3175;SDS011;1599;51.564;6.990;2023-01-29T06:08:31;74.23;;;31.00;;
3175;SDS011;1599;51.564;6.990;2023-01-29T06:10:57;67.13;;;31.77;;
3175;SDS011;1599;51.564;6.990;2023-01-29T06:13:22;76.20;;;31.83;;
3175;SDS011;1599;51.564;6.990;2023-01-29T06:15:48;70.63;;;30.90;;
3175;SDS011;1599;51.564;6.990;2023-01-29T06:18:14;73.73;;;30.67;;
3175;SDS011;1599;51.564;6.990;2023-01-29T06:20:40;70.10;;;29.73;;
3175;SDS011;1599;51.564;6.990;2023-01-29T06:23:05;73.93;;;30.30;;
3175;SDS011;1599;51.564;6.990;2023-01-29T06:25:31;80.00;;;32.87;;
3175;SDS011;1599;51.564;6.990;2023-01-29T06:27:56;70.00;;;32.00;;
3175;SDS011;1599;51.564;6.990;2023-01-29T06:30:22;68.50;;;30.60;;
3175;SDS011;1599;51.564;6.990;2023-01-29T06:32:47;80.17;;;32.47;;
3175;SDS011;1599;51.564;6.990;2023-01-29T06:35:13;70.70;;;29.57;;
3175;SDS011;1599;51.564;6.990;2023-01-29T06:37:39;81.53;;;31.90;;
3175;SDS011;1599;51.564;6.990;2023-01-29T06:40:05;73.63;;;32.17;;
3175;SDS011;1599;51.564;6.990;2023-01-29T06:42:31;66.53;;;32.10;;
3175;SDS011;1599;51.564;6.990;2023-01-29T06:44:58;68.77;;;31.10;;
3175;SDS011;1599;51.564;6.990;2023-01-29T06:47:24;77.13;;;32.17;;
3175;SDS011;1599;51.564;6.990;2023-01-29T06:49:51;69.33;;;29.60;;
3175;SDS011;1599;51.564;6.990;2023-01-29T06:52:16;77.63;;;31.23;;
3175;SDS011;1599;51.564;6.990;2023-01-29T06:54:42;78.70;;;31.07;;
3175;SDS011;1599;51.564;6.990;2023-01-29T06:57:07;73.67;;;30.83;;
3175;SDS011;1599;51.564;6.990;2023-01-29T06:59:33;70.30;;;30.90;;
3175;SDS011;1599;51.564;6.990;2023-01-29T07:01:58;72.07;;;30.00;;
3175;SDS011;1599;51.564;6.990;2023-01-29T07:04:24;65.03;;;28.83;;
3175;SDS011;1599;51.564;6.990;2023-01-29T07:06:49;78.13;;;31.00;;
3175;SDS011;1599;51.564;6.990;2023-01-29T07:09:15;79.27;;;30.27;;
3175;SDS011;1599;51.564;6.990;2023-01-29T07:11:41;77.23;;;30.97;;
3175;SDS011;1599;51.564;6.990;2023-01-29T07:14:06;76.23;;;31.27;;
3175;SDS011;1599;51.564;6.990;2023-01-29T07:16:32;72.17;;;31.00;;
3175;SDS011;1599;51.564;6.990;2023-01-29T07:18:58;75.30;;;29.80;;
3175;SDS011;1599;51.564;6.990;2023-01-29T07:21:23;64.37;;;27.87;;
3175;SDS011;1599;51.564;6.990;2023-01-29T07:23:49;76.20;;;30.60;;
3175;SDS011;1599;51.564;6.990;2023-01-29T07:26:14;74.17;;;29.63;;
3175;SDS011;1599;51.564;6.990;2023-01-29T07:28:40;65.83;;;29.50;;
3175;SDS011;1599;51.564;6.990;2023-01-29T07:31:06;75.87;;;34.13;;
3175;SDS011;1599;51.564;6.990;2023-01-29T07:33:32;65.00;;;28.73;;
3175;SDS011;1599;51.564;6.990;2023-01-29T07:35:58;76.70;;;30.07;;
3175;SDS011;1599;51.564;6.990;2023-01-29T07:38:24;60.33;;;28.77;;
3175;SDS011;1599;51.564;6.990;2023-01-29T07:40:52;71.00;;;31.50;;
3175;SDS011;1599;51.564;6.990;2023-01-29T07:43:18;63.10;;;28.37;;
3175;SDS011;1599;51.564;6.990;2023-01-29T07:45:44;66.13;;;29.80;;
3175;SDS011;1599;51.564;6.990;2023-01-29T07:48:11;58.27;;;27.07;;
3175;SDS011;1599;51.564;6.990;2023-01-29T07:50:37;68.27;;;29.97;;
3175;SDS011;1599;51.564;6.990;2023-01-29T07:53:03;70.53;;;30.70;;
3175;SDS011;1599;51.564;6.990;2023-01-29T07:55:29;73.60;;;31.00;;
3175;SDS011;1599;51.564;6.990;2023-01-29T07:57:58;73.63;;;30.00;;
3175;SDS011;1599;51.564;6.990;2023-01-29T08:00:25;73.10;;;29.50;;
3175;SDS011;1599;51.564;6.990;2023-01-29T08:02:51;66.20;;;29.93;;
3175;SDS011;1599;51.564;6.990;2023-01-29T08:05:17;74.67;;;32.67;;
3175;SDS011;1599;51.564;6.990;2023-01-29T08:07:43;73.80;;;31.63;;
3175;SDS011;1599;51.564;6.990;2023-01-29T08:10:09;67.93;;;26.30;;
3175;SDS011;1599;51.564;6.990;2023-01-29T08:12:35;63.27;;;28.13;;
3175;SDS011;1599;51.564;6.990;2023-01-29T08:15:00;59.30;;;28.83;;
3175;SDS011;1599;51.564;6.990;2023-01-29T08:17:26;61.63;;;27.97;;
3175;SDS011;1599;51.564;6.990;2023-01-29T08:19:51;63.17;;;29.30;;
3175;SDS011;1599;51.564;6.990;2023-01-29T08:22:17;62.37;;;29.57;;
3175;SDS011;1599;51.564;6.990;2023-01-29T08:24:43;70.87;;;29.57;;
3175;SDS011;1599;51.564;6.990;2023-01-29T08:27:08;65.67;;;28.90;;
3175;SDS011;1599;51.564;6.990;2023-01-29T08:29:34;54.53;;;26.20;;
3175;SDS011;1599;51.564;6.990;2023-01-29T08:32:00;64.53;;;27.10;;
3175;SDS011;1599;51.564;6.990;2023-01-29T08:34:25;52.83;;;26.40;;
3175;SDS011;1599;51.564;6.990;2023-01-29T08:36:51;60.63;;;27.00;;
3175;SDS011;1599;51.564;6.990;2023-01-29T08:39:17;59.57;;;26.80;;
3175;SDS011;1599;51.564;6.990;2023-01-29T08:41:43;57.07;;;25.20;;
3175;SDS011;1599;51.564;6.990;2023-01-29T08:44:08;56.93;;;26.50;;
3175;SDS011;1599;51.564;6.990;2023-01-29T08:46:36;54.20;;;25.20;;
3175;SDS011;1599;51.564;6.990;2023-01-29T08:49:01;51.90;;;25.07;;
3175;SDS011;1599;51.564;6.990;2023-01-29T08:51:27;66.60;;;27.90;;
3175;SDS011;1599;51.564;6.990;2023-01-29T08:53:53;57.67;;;27.20;;
3175;SDS011;1599;51.564;6.990;2023-01-29T08:56:18;59.50;;;28.47;;
3175;SDS011;1599;51.564;6.990;2023-01-29T08:58:44;59.50;;;28.20;;
3175;SDS011;1599;51.564;6.990;2023-01-29T09:01:11;52.67;;;27.00;;
3175;SDS011;1599;51.564;6.990;2023-01-29T09:03:38;56.23;;;27.50;;
3175;SDS011;1599;51.564;6.990;2023-01-29T09:06:08;56.20;;;26.70;;
3175;SDS011;1599;51.564;6.990;2023-01-29T09:08:35;65.40;;;27.67;;
3175;SDS011;1599;51.564;6.990;2023-01-29T09:11:01;50.63;;;25.70;;
3175;SDS011;1599;51.564;6.990;2023-01-29T09:13:26;60.23;;;26.43;;
3175;SDS011;1599;51.564;6.990;2023-01-29T09:15:52;61.57;;;25.93;;
3175;SDS011;1599;51.564;6.990;2023-01-29T09:18:18;56.97;;;27.40;;
3175;SDS011;1599;51.564;6.990;2023-01-29T09:20:45;53.20;;;23.70;;
3175;SDS011;1599;51.564;6.990;2023-01-29T09:23:11;62.67;;;26.00;;
3175;SDS011;1599;51.564;6.990;2023-01-29T09:25:37;52.97;;;24.50;;
3175;SDS011;1599;51.564;6.990;2023-01-29T09:28:05;56.63;;;26.30;;
3175;SDS011;1599;51.564;6.990;2023-01-29T09:30:31;60.43;;;26.67;;
3175;SDS011;1599;51.564;6.990;2023-01-29T09:32:59;55.47;;;26.00;;
3175;SDS011;1599;51.564;6.990;2023-01-29T09:35:24;54.07;;;24.33;;
3175;SDS011;1599;51.564;6.990;2023-01-29T09:37:50;57.90;;;26.10;;
3175;SDS011;1599;51.564;6.990;2023-01-29T09:40:23;62.57;;;26.63;;
3175;SDS011;1599;51.564;6.990;2023-01-29T09:43:10;59.83;;;26.83;;
3175;SDS011;1599;51.564;6.990;2023-01-29T09:45:39;53.43;;;26.60;;
3175;SDS011;1599;51.564;6.990;2023-01-29T09:48:14;53.30;;;24.13;;
3175;SDS011;1599;51.564;6.990;2023-01-29T09:50:40;58.03;;;26.47;;
3175;SDS011;1599;51.564;6.990;2023-01-29T09:55:53;56.77;;;23.30;;
3175;SDS011;1599;51.564;6.990;2023-01-29T09:58:39;53.60;;;25.40;;
3175;SDS011;1599;51.564;6.990;2023-01-29T10:17:41;60.27;;;27.90;;
3175;SDS011;1599;51.564;6.990;2023-01-29T10:23:04;59.33;;;23.00;;
3175;SDS011;1599;51.564;6.990;2023-01-29T10:25:39;51.20;;;25.17;;
3175;SDS011;1599;51.564;6.990;2023-01-29T10:28:13;52.70;;;24.70;;
3175;SDS011;1599;51.564;6.990;2023-01-29T10:30:39;58.57;;;24.63;;
3175;SDS011;1599;51.564;6.990;2023-01-29T10:33:18;57.90;;;25.10;;
3175;SDS011;1599;51.564;6.990;2023-01-29T10:35:50;58.00;;;25.50;;
3175;SDS011;1599;51.564;6.990;2023-01-29T10:38:33;49.17;;;23.63;;
3175;SDS011;1599;51.564;6.990;2023-01-29T10:54:16;55.33;;;23.93;;
3175;SDS011;1599;51.564;6.990;2023-01-29T11:00:16;46.80;;;22.77;;
3175;SDS011;1599;51.564;6.990;2023-01-29T11:02:46;49.07;;;23.57;;
3175;SDS011;1599;51.564;6.990;2023-01-29T11:07:49;52.07;;;24.07;;
3175;SDS011;1599;51.564;6.990;2023-01-29T11:10:54;43.57;;;22.70;;
3175;SDS011;1599;51.564;6.990;2023-01-29T11:13:25;47.73;;;24.10;;
3175;SDS011;1599;51.564;6.990;2023-01-29T11:15:55;58.83;;;26.23;;
3175;SDS011;1599;51.564;6.990;2023-01-29T11:18:21;56.30;;;24.47;;
3175;SDS011;1599;51.564;6.990;2023-01-29T11:20:46;50.30;;;24.97;;
3175;SDS011;1599;51.564;6.990;2023-01-29T11:23:25;53.07;;;24.63;;
3175;SDS011;1599;51.564;6.990;2023-01-29T11:25:52;58.70;;;25.60;;
3175;SDS011;1599;51.564;6.990;2023-01-29T11:28:39;49.37;;;24.30;;
3175;SDS011;1599;51.564;6.990;2023-01-29T11:31:22;52.40;;;23.40;;
3175;SDS011;1599;51.564;6.990;2023-01-29T11:34:04;51.20;;;23.20;;
3175;SDS011;1599;51.564;6.990;2023-01-29T11:36:37;49.07;;;24.60;;
3175;SDS011;1599;51.564;6.990;2023-01-29T11:39:09;48.30;;;22.70;;
3175;SDS011;1599;51.564;6.990;2023-01-29T11:41:48;51.03;;;23.50;;
3175;SDS011;1599;51.564;6.990;2023-01-29T11:44:18;53.57;;;24.10;;
3175;SDS011;1599;51.564;6.990;2023-01-29T11:46:45;57.53;;;25.27;;
3175;SDS011;1599;51.564;6.990;2023-01-29T11:49:19;51.77;;;24.47;;
3175;SDS011;1599;51.564;6.990;2023-01-29T11:51:51;46.70;;;22.80;;
3175;SDS011;1599;51.564;6.990;2023-01-29T11:54:17;50.60;;;24.43;;
3175;SDS011;1599;51.564;6.990;2023-01-29T11:56:44;47.60;;;22.70;;
3175;SDS011;1599;51.564;6.990;2023-01-29T11:59:28;49.43;;;22.67;;
3175;SDS011;1599;51.564;6.990;2023-01-29T12:02:03;50.77;;;24.03;;
3175;SDS011;1599;51.564;6.990;2023-01-29T12:04:47;48.13;;;22.67;;
3175;SDS011;1599;51.564;6.990;2023-01-29T12:07:13;59.20;;;24.60;;
3175;SDS011;1599;51.564;6.990;2023-01-29T12:09:41;48.10;;;24.93;;
3175;SDS011;1599;51.564;6.990;2023-01-29T12:12:32;45.93;;;22.40;;
3175;SDS011;1599;51.564;6.990;2023-01-29T12:15:15;50.03;;;23.20;;
3175;SDS011;1599;51.564;6.990;2023-01-29T12:23:40;49.07;;;22.43;;
3175;SDS011;1599;51.564;6.990;2023-01-29T12:26:16;46.27;;;21.63;;
3175;SDS011;1599;51.564;6.990;2023-01-29T12:34:51;48.30;;;23.80;;
3175;SDS011;1599;51.564;6.990;2023-01-29T12:37:44;51.77;;;25.40;;
3175;SDS011;1599;51.564;6.990;2023-01-29T12:40:16;52.53;;;24.40;;
3175;SDS011;1599;51.564;6.990;2023-01-29T12:42:47;56.73;;;24.53;;
3175;SDS011;1599;51.564;6.990;2023-01-29T12:45:19;49.37;;;23.70;;
3175;SDS011;1599;51.564;6.990;2023-01-29T12:47:47;50.13;;;23.40;;
3175;SDS011;1599;51.564;6.990;2023-01-29T12:50:18;48.33;;;24.20;;
3175;SDS011;1599;51.564;6.990;2023-01-29T12:55:19;47.63;;;23.33;;
3175;SDS011;1599;51.564;6.990;2023-01-29T12:57:57;45.00;;;22.07;;
3175;SDS011;1599;51.564;6.990;2023-01-29T13:00:33;52.50;;;25.37;;
3175;SDS011;1599;51.564;6.990;2023-01-29T13:05:53;49.20;;;24.43;;
3175;SDS011;1599;51.564;6.990;2023-01-29T13:11:11;48.83;;;24.90;;
3175;SDS011;1599;51.564;6.990;2023-01-29T13:13:47;43.17;;;22.17;;
3175;SDS011;1599;51.564;6.990;2023-01-29T13:16:18;46.43;;;22.40;;
3175;SDS011;1599;51.564;6.990;2023-01-29T13:18:59;47.90;;;22.80;;
3175;SDS011;1599;51.564;6.990;2023-01-29T13:21:38;48.53;;;22.97;;
3175;SDS011;1599;51.564;6.990;2023-01-29T13:24:15;47.77;;;22.33;;
3175;SDS011;1599;51.564;6.990;2023-01-29T13:26:44;46.40;;;20.80;;
3175;SDS011;1599;51.564;6.990;2023-01-29T13:29:21;49.43;;;23.50;;
3175;SDS011;1599;51.564;6.990;2023-01-29T13:32:08;55.77;;;23.30;;
3175;SDS011;1599;51.564;6.990;2023-01-29T13:34:43;50.13;;;23.13;;
